createdAt,value
2019-04-01T00:00:55.189Z,3.60
2019-04-01T00:03:24.861Z,3.60
2019-04-01T00:05:54.417Z,3.60
2019-04-01T00:08:23.809Z,3.50
2019-04-01T00:10:53.407Z,3.50
2019-04-01T00:13:22.844Z,3.40
2019-04-01T00:15:52.483Z,3.40
2019-04-01T00:18:21.959Z,3.40
2019-04-01T00:20:51.364Z,3.30
2019-04-01T00:23:20.786Z,3.30
2019-04-01T00:25:51.307Z,3.30
2019-04-01T00:28:20.800Z,3.20
2019-04-01T00:30:50.283Z,3.20
2019-04-01T00:33:20.576Z,3.20
2019-04-01T00:35:49.896Z,3.10
2019-04-01T00:38:19.443Z,3.10
2019-04-01T00:40:48.947Z,3.10
2019-04-01T00:43:46.018Z,3.00
2019-04-01T00:46:16.993Z,3.00
2019-04-01T00:48:46.263Z,3.00
2019-04-01T00:51:15.821Z,2.90
2019-04-01T00:53:45.307Z,2.90
2019-04-01T00:56:14.809Z,2.90
2019-04-01T00:58:44.353Z,2.90
2019-04-01T01:01:15.158Z,2.80
2019-04-01T01:03:44.962Z,2.80
2019-04-01T01:06:14.645Z,2.80
2019-04-01T01:08:44.320Z,2.70
2019-04-01T01:11:13.837Z,2.70
2019-04-01T01:13:43.370Z,2.70
2019-04-01T01:16:12.920Z,2.60
2019-04-01T01:18:42.222Z,2.60
2019-04-01T01:21:11.619Z,2.60
2019-04-01T01:23:42.067Z,2.60
2019-04-01T01:26:11.499Z,2.50
2019-04-01T01:28:40.964Z,2.50
2019-04-01T01:31:10.239Z,2.50
2019-04-01T01:33:39.604Z,2.40
2019-04-01T01:36:08.986Z,2.40
2019-04-01T01:38:38.219Z,2.30
2019-04-01T01:41:07.503Z,2.30
2019-04-01T01:43:36.714Z,2.30
2019-04-01T01:46:06.082Z,2.20
2019-04-01T01:48:35.481Z,2.20
2019-04-01T01:51:04.698Z,2.20
2019-04-01T01:53:34.038Z,2.10
2019-04-01T01:56:03.373Z,2.10
2019-04-01T01:58:32.673Z,2.10
2019-04-01T02:01:01.817Z,2.10
2019-04-01T02:03:31.016Z,2.00
2019-04-01T02:06:00.306Z,2.00
2019-04-01T02:08:29.764Z,2.00
2019-04-01T02:10:59.077Z,2.00
2019-04-01T02:13:29.569Z,1.90
2019-04-01T02:15:58.741Z,1.90
2019-04-01T02:18:28.304Z,1.90
2019-04-01T02:20:57.489Z,1.90
2019-04-01T02:23:26.842Z,1.90
2019-04-01T02:25:56.328Z,1.80
2019-04-01T02:28:25.541Z,1.80
2019-04-01T02:30:55.013Z,1.80
2019-04-01T02:33:24.305Z,1.80
2019-04-01T02:35:53.707Z,1.80
2019-04-01T02:38:22.990Z,1.70
2019-04-01T02:40:52.648Z,1.70
2019-04-01T02:43:22.002Z,1.70
2019-04-01T02:45:51.201Z,1.70
2019-04-01T02:48:20.653Z,1.70
2019-04-01T02:50:50.118Z,1.60
2019-04-01T02:53:19.568Z,1.60
2019-04-01T02:55:49.065Z,1.60
2019-04-01T02:58:18.521Z,1.50
2019-04-01T03:00:48.156Z,1.50
2019-04-01T03:03:17.790Z,1.50
2019-04-01T03:05:47.082Z,1.50
2019-04-01T03:08:16.433Z,1.40
2019-04-01T03:10:45.795Z,1.40
2019-04-01T03:13:15.144Z,1.40
2019-04-01T03:15:44.797Z,1.30
2019-04-01T03:18:14.039Z,1.30
2019-04-01T03:20:43.515Z,1.30
2019-04-01T03:23:13.227Z,1.30
2019-04-01T03:25:42.702Z,1.30
2019-04-01T03:28:12.106Z,1.20
2019-04-01T03:30:41.620Z,1.20
2019-04-01T03:33:11.002Z,1.20
2019-04-01T03:35:40.461Z,1.20
2019-04-01T03:38:10.000Z,1.20
2019-04-01T03:40:39.348Z,1.10
2019-04-01T03:43:08.926Z,1.10
2019-04-01T03:45:38.170Z,1.10
2019-04-01T03:48:07.572Z,1.10
2019-04-01T03:50:37.178Z,1.10
2019-04-01T03:53:06.631Z,1.10
2019-04-01T03:55:36.331Z,1.00
2019-04-01T03:58:05.635Z,1.00
2019-04-01T04:00:35.029Z,1.00
2019-04-01T04:03:04.665Z,1.00
2019-04-01T04:05:33.945Z,0.90
2019-04-01T04:08:03.219Z,0.90
2019-04-01T04:10:32.498Z,0.90
2019-04-01T04:13:01.746Z,0.90
2019-04-01T04:15:31.119Z,0.80
2019-04-01T04:18:00.780Z,0.80
2019-04-01T04:20:30.208Z,0.80
2019-04-01T04:22:59.415Z,0.70
2019-04-01T04:25:29.309Z,0.70
2019-04-01T04:27:58.987Z,0.70
2019-04-01T04:30:28.292Z,0.70
2019-04-01T04:32:57.720Z,0.60
2019-04-01T04:35:26.946Z,0.60
2019-04-01T04:37:56.322Z,0.60
2019-04-01T04:40:25.837Z,0.60
2019-04-01T04:42:55.076Z,0.60
2019-04-01T04:45:24.646Z,0.60
2019-04-01T04:47:54.074Z,0.60
2019-04-01T04:50:23.600Z,0.50
2019-04-01T04:52:52.938Z,0.60
2019-04-01T04:55:22.367Z,0.50
2019-04-01T04:57:51.685Z,0.50
2019-04-01T05:00:20.938Z,0.50
2019-04-01T05:02:50.318Z,0.50
2019-04-01T05:05:19.458Z,0.50
2019-04-01T05:07:48.717Z,0.50
2019-04-01T05:10:17.973Z,0.50
2019-04-01T05:12:47.806Z,0.70
2019-04-01T05:15:17.322Z,0.90
2019-04-01T05:17:46.862Z,1.10
2019-04-01T05:20:16.744Z,1.10
2019-04-01T05:22:46.770Z,1.00
2019-04-01T05:25:16.051Z,1.00
2019-04-01T05:27:48.769Z,1.00
2019-04-01T05:30:18.648Z,1.00
2019-04-01T05:32:50.179Z,1.00
2019-04-01T05:35:19.530Z,1.00
2019-04-01T05:37:48.751Z,1.00
2019-04-01T05:40:18.050Z,1.00
2019-04-01T05:42:47.482Z,1.00
2019-04-01T05:45:16.808Z,1.00
2019-04-01T05:47:49.326Z,1.00
2019-04-01T05:50:18.789Z,1.00
2019-04-01T05:52:48.977Z,1.00
2019-04-01T05:55:23.815Z,1.00
2019-04-01T05:57:53.082Z,1.10
2019-04-01T06:00:28.318Z,1.10
2019-04-01T06:02:57.665Z,1.20
2019-04-01T06:05:27.086Z,1.20
2019-04-01T06:08:01.098Z,1.30
2019-04-01T06:10:31.310Z,1.30
2019-04-01T06:13:01.970Z,1.40
2019-04-01T06:15:34.326Z,1.40
2019-04-01T06:18:12.239Z,1.50
2019-04-01T06:20:47.194Z,1.60
2019-04-01T06:23:17.124Z,1.70
2019-04-01T06:25:46.799Z,1.70
2019-04-01T06:28:20.684Z,1.90
2019-04-01T06:30:49.798Z,2.00
2019-04-01T06:33:19.291Z,2.00
2019-04-01T06:35:48.689Z,2.10
2019-04-01T06:38:17.989Z,2.20
2019-04-01T06:40:47.352Z,2.30
2019-04-01T06:43:16.924Z,2.40
2019-04-01T06:45:46.385Z,2.50
2019-04-01T06:48:15.787Z,2.60
2019-04-01T06:50:45.134Z,2.80
2019-04-01T06:53:14.389Z,2.80
2019-04-01T06:55:46.041Z,3.00
2019-04-01T06:58:15.318Z,3.10
2019-04-01T07:00:44.639Z,3.20
2019-04-01T07:03:14.805Z,3.30
2019-04-01T07:05:44.206Z,3.40
2019-04-01T07:08:13.909Z,3.50
2019-04-01T07:10:43.593Z,3.50
2019-04-01T07:13:14.900Z,3.60
2019-04-01T07:15:44.259Z,3.70
2019-04-01T07:18:13.533Z,3.80
2019-04-01T07:20:42.932Z,3.90
2019-04-01T07:23:12.433Z,4.00
2019-04-01T07:25:42.472Z,4.10
2019-04-01T07:28:11.869Z,4.20
2019-04-01T07:30:41.960Z,4.30
2019-04-01T07:33:10.559Z,4.30
2019-04-01T07:35:39.836Z,4.40
2019-04-01T07:38:09.498Z,4.50
2019-04-01T07:40:39.017Z,4.60
2019-04-01T07:43:08.236Z,4.70
2019-04-01T07:45:37.584Z,4.80
2019-04-01T07:48:06.955Z,4.90
2019-04-01T07:50:36.355Z,5.00
2019-04-01T07:53:05.756Z,5.00
2019-04-01T07:55:35.152Z,5.10
2019-04-01T07:58:04.417Z,5.20
2019-04-01T08:00:33.804Z,5.30
2019-04-01T08:03:03.192Z,5.40
2019-04-01T08:05:38.267Z,5.50
2019-04-01T08:08:07.677Z,5.50
2019-04-01T08:10:36.927Z,5.60
2019-04-01T08:13:06.254Z,5.70
2019-04-01T08:15:35.495Z,5.80
2019-04-01T08:18:04.753Z,5.80
2019-04-01T08:20:35.168Z,5.90
2019-04-01T08:23:04.309Z,5.90
2019-04-01T08:25:33.542Z,6.00
2019-04-01T08:28:02.900Z,6.00
2019-04-01T08:30:32.336Z,6.10
2019-04-01T08:33:01.550Z,6.20
2019-04-01T08:35:30.636Z,6.20
2019-04-01T08:37:59.965Z,6.30
2019-04-01T08:40:29.266Z,6.40
2019-04-01T08:42:58.360Z,6.50
2019-04-01T08:45:27.431Z,6.70
2019-04-01T08:47:56.645Z,6.80
2019-04-01T08:50:26.011Z,7.00
2019-04-01T08:52:55.350Z,7.10
2019-04-01T08:55:24.751Z,7.20
2019-04-01T08:57:54.641Z,7.20
2019-04-01T09:00:23.798Z,7.40
2019-04-01T09:02:53.060Z,7.60
2019-04-01T09:05:22.739Z,7.70
2019-04-01T09:07:52.260Z,7.70
2019-04-01T09:10:21.494Z,7.90
2019-04-01T09:12:54.256Z,8.00
2019-04-01T09:15:23.661Z,8.00
2019-04-01T09:17:53.017Z,8.10
2019-04-01T09:20:22.254Z,8.30
2019-04-01T09:22:51.657Z,8.20
2019-04-01T09:25:20.975Z,8.20
2019-04-01T09:27:50.194Z,8.20
2019-04-01T09:30:19.825Z,8.20
2019-04-01T09:32:49.076Z,8.10
2019-04-01T09:35:18.431Z,8.10
2019-04-01T09:37:47.648Z,8.00
2019-04-01T09:40:17.183Z,8.10
2019-04-01T09:42:46.510Z,8.10
2019-04-01T09:45:16.601Z,8.10
2019-04-01T09:47:47.394Z,8.10
2019-04-01T09:50:16.607Z,8.10
2019-04-01T09:52:45.906Z,8.10
2019-04-01T09:55:15.184Z,8.10
2019-04-01T09:57:44.420Z,8.00
2019-04-01T10:00:14.265Z,8.10
2019-04-01T10:02:43.640Z,8.10
2019-04-01T10:05:13.094Z,8.10
2019-04-01T10:07:42.511Z,8.10
2019-04-01T10:10:12.051Z,8.20
2019-04-01T10:12:41.467Z,8.20
2019-04-01T10:15:11.540Z,8.20
2019-04-01T10:17:41.315Z,8.20
2019-04-01T10:20:11.169Z,8.30
2019-04-01T10:22:40.513Z,8.30
2019-04-01T10:25:10.286Z,8.30
2019-04-01T10:27:39.804Z,8.40
2019-04-01T10:30:10.955Z,8.40
2019-04-01T10:32:40.284Z,8.40
2019-04-01T10:35:10.169Z,8.40
2019-04-01T10:37:39.574Z,8.40
2019-04-01T10:40:09.570Z,8.50
2019-04-01T10:42:38.895Z,8.50
2019-04-01T10:45:08.782Z,8.60
2019-04-01T10:47:38.379Z,8.60
2019-04-01T10:50:11.509Z,8.70
2019-04-01T10:52:43.878Z,8.70
2019-04-01T10:55:11.951Z,8.80
2019-04-01T10:57:43.506Z,8.80
2019-04-01T11:00:12.901Z,8.80
2019-04-01T11:02:41.251Z,8.90
2019-04-01T11:05:10.711Z,8.90
2019-04-01T11:07:39.936Z,8.90
2019-04-01T11:10:11.289Z,8.90
2019-04-01T11:12:40.140Z,9.00
2019-04-01T11:15:09.682Z,9.00
2019-04-01T11:17:39.117Z,9.00
2019-04-01T11:20:09.353Z,9.00
2019-04-01T11:22:37.517Z,9.10
2019-04-01T11:25:06.882Z,9.10
2019-04-01T11:27:36.227Z,9.20
2019-04-01T11:30:07.798Z,9.20
2019-04-01T11:32:37.328Z,9.20
2019-04-01T11:35:07.081Z,9.20
2019-04-01T11:37:36.448Z,9.20
2019-04-01T11:40:10.225Z,9.30
2019-04-01T11:42:40.465Z,9.30
2019-04-01T11:45:08.867Z,9.40
2019-04-01T11:47:38.258Z,9.40
2019-04-01T11:50:08.685Z,9.40
2019-04-01T11:52:38.567Z,9.40
2019-04-01T11:55:09.221Z,9.50
2019-04-01T11:57:40.579Z,9.50
2019-04-01T12:00:14.105Z,9.50
2019-04-01T12:02:43.385Z,9.60
2019-04-01T12:05:12.940Z,9.60
2019-04-01T12:07:42.151Z,9.70
2019-04-01T12:10:11.710Z,9.80
2019-04-01T12:12:40.904Z,9.80
2019-04-01T12:15:12.371Z,9.90
2019-04-01T12:17:41.729Z,9.90
2019-04-01T12:20:10.718Z,9.90
2019-04-01T12:22:41.282Z,10.00
2019-04-01T12:25:11.616Z,10.10
2019-04-01T12:27:41.603Z,10.20
2019-04-01T12:30:11.355Z,10.30
2019-04-01T12:32:41.004Z,10.30
2019-04-01T12:35:10.448Z,10.30
2019-04-01T12:37:39.679Z,10.40
2019-04-01T12:40:08.986Z,10.40
2019-04-01T12:42:38.284Z,10.40
2019-04-01T12:45:08.140Z,10.50
2019-04-01T12:47:37.393Z,10.60
2019-04-01T12:50:06.840Z,10.70
2019-04-01T12:52:36.217Z,10.70
2019-04-01T12:55:05.837Z,10.70
2019-04-01T12:57:35.050Z,10.80
2019-04-01T13:00:05.971Z,10.90
2019-04-01T13:02:35.716Z,10.90
2019-04-01T13:05:05.438Z,11.00
2019-04-01T13:07:34.785Z,11.20
2019-04-01T13:10:04.662Z,11.30
2019-04-01T13:12:34.162Z,11.50
2019-04-01T13:15:06.837Z,11.70
2019-04-01T13:17:36.222Z,11.80
2019-04-01T13:20:06.026Z,11.90
2019-04-01T13:22:35.491Z,12.20
2019-04-01T13:25:06.269Z,12.20
2019-04-01T13:27:38.043Z,12.40
2019-04-01T13:30:08.139Z,12.50
2019-04-01T13:32:37.458Z,12.70
2019-04-01T13:35:10.165Z,12.50
2019-04-01T13:37:39.549Z,13.00
2019-04-01T13:40:10.426Z,13.10
2019-04-01T13:42:39.787Z,13.40
2019-04-01T13:45:09.066Z,13.50
2019-04-01T13:47:41.557Z,13.30
2019-04-01T13:50:11.453Z,13.80
2019-04-01T13:52:40.682Z,14.00
2019-04-01T13:55:10.099Z,13.50
2019-04-01T13:57:39.635Z,13.50
2019-04-01T14:00:09.653Z,13.60
2019-04-01T14:02:38.964Z,14.00
2019-04-01T14:05:08.359Z,14.00
2019-04-01T14:07:37.575Z,14.20
2019-04-01T14:10:07.572Z,14.30
2019-04-01T14:12:36.743Z,14.30
2019-04-01T14:15:06.678Z,14.40
2019-04-01T14:17:35.834Z,14.50
2019-04-01T14:20:05.706Z,14.20
2019-04-01T14:22:39.964Z,14.20
2019-04-01T14:25:09.394Z,14.60
2019-04-01T14:27:39.484Z,14.60
2019-04-01T14:30:08.051Z,14.30
2019-04-01T14:32:37.376Z,14.50
2019-04-01T14:35:07.249Z,14.80
2019-04-01T14:37:36.409Z,15.00
2019-04-01T14:40:06.582Z,14.80
2019-04-01T14:42:37.272Z,14.70
2019-04-01T14:45:07.330Z,15.00
2019-04-01T14:47:41.801Z,14.80
2019-04-01T14:50:08.077Z,14.70
2019-04-01T14:52:37.365Z,15.00
2019-04-01T14:55:07.970Z,14.90
2019-04-01T14:57:37.167Z,14.90
2019-04-01T15:00:07.356Z,14.60
2019-04-01T15:02:35.657Z,15.00
2019-04-01T15:05:05.372Z,14.80
2019-04-01T15:07:34.572Z,14.90
2019-04-01T15:10:04.091Z,14.80
2019-04-01T15:12:33.634Z,15.10
2019-04-01T15:15:04.118Z,15.40
2019-04-01T15:17:36.724Z,15.60
2019-04-01T15:20:05.764Z,15.80
2019-04-01T15:22:38.145Z,15.90
2019-04-01T15:25:07.960Z,15.70
2019-04-01T15:27:37.465Z,15.70
2019-04-01T15:30:07.616Z,15.80
2019-04-01T15:32:36.049Z,15.90
2019-04-01T15:35:05.674Z,15.90
2019-04-01T15:37:35.107Z,15.30
2019-04-01T15:40:05.218Z,15.20
2019-04-01T15:42:33.507Z,15.20
2019-04-01T15:45:03.149Z,15.50
2019-04-01T15:47:32.914Z,15.40
2019-04-01T15:50:02.114Z,15.60
2019-04-01T15:52:31.285Z,15.60
2019-04-01T15:55:02.384Z,15.10
2019-04-01T15:57:31.432Z,15.10
2019-04-01T16:00:00.679Z,15.20
2019-04-01T16:02:30.068Z,15.10
2019-04-01T16:04:59.146Z,15.10
2019-04-01T16:07:28.978Z,14.90
2019-04-01T16:09:57.441Z,14.90
2019-04-01T16:12:26.582Z,15.10
2019-04-01T16:14:55.866Z,14.70
2019-04-01T16:17:25.373Z,14.60
2019-04-01T16:19:54.534Z,14.70
2019-04-01T16:22:23.578Z,14.70
2019-04-01T16:24:52.764Z,14.60
2019-04-01T16:27:22.309Z,14.60
2019-04-01T16:29:55.882Z,14.70
2019-04-01T16:32:29.191Z,14.00
2019-04-01T16:34:59.327Z,14.00
2019-04-01T16:37:47.385Z,14.10
2019-04-01T16:40:39.727Z,14.00
2019-04-01T16:43:05.915Z,14.00
2019-04-01T16:45:38.248Z,14.00
2019-04-01T16:48:08.495Z,14.00
2019-04-01T16:50:39.207Z,13.60
2019-04-01T16:53:08.407Z,13.80
2019-04-01T16:55:39.649Z,14.00
2019-04-01T16:58:09.689Z,14.00
2019-04-01T17:00:41.497Z,14.10
2019-04-01T17:03:13.540Z,14.00
2019-04-01T17:05:42.123Z,14.00
2019-04-01T17:08:11.948Z,13.80
2019-04-01T17:10:42.777Z,13.80
2019-04-01T17:13:12.281Z,13.70
2019-04-01T17:15:41.864Z,13.60
2019-04-01T17:18:11.492Z,13.60
2019-04-01T17:20:41.093Z,13.50
2019-04-01T17:23:10.745Z,13.30
2019-04-01T17:25:40.023Z,13.20
2019-04-01T17:28:10.292Z,13.10
2019-04-01T17:30:38.652Z,12.90
2019-04-01T17:33:08.834Z,12.80
2019-04-01T17:35:37.467Z,12.70
2019-04-01T17:38:07.297Z,12.50
2019-04-01T17:40:37.181Z,12.40
2019-04-01T17:43:09.214Z,12.20
2019-04-01T17:45:41.424Z,12.00
2019-04-01T17:48:11.463Z,11.80
2019-04-01T17:50:41.350Z,11.60
2019-04-01T17:53:13.754Z,11.50
2019-04-01T17:55:45.598Z,11.30
2019-04-01T17:58:15.505Z,11.20
2019-04-01T18:00:50.805Z,11.10
2019-04-01T18:03:20.221Z,10.90
2019-04-01T18:05:51.655Z,10.80
2019-04-01T18:08:21.078Z,10.70
2019-04-01T18:10:50.735Z,10.60
2019-04-01T18:13:22.057Z,10.50
2019-04-01T18:15:52.812Z,10.50
2019-04-01T18:18:27.019Z,10.40
2019-04-01T18:20:53.258Z,10.30
2019-04-01T18:23:22.563Z,10.30
2019-04-01T18:25:51.709Z,10.20
2019-04-01T18:28:21.629Z,10.10
2019-04-01T18:30:50.820Z,10.00
2019-04-01T18:33:20.463Z,9.90
2019-04-01T18:35:49.623Z,9.80
2019-04-01T18:38:18.876Z,9.70
2019-04-01T18:40:48.084Z,9.70
2019-04-01T18:43:17.246Z,9.60
2019-04-01T18:45:46.503Z,9.50
2019-04-01T18:48:15.803Z,9.50
2019-04-01T18:50:45.031Z,9.40
2019-04-01T18:53:14.838Z,9.30
2019-04-01T18:55:44.354Z,9.20
2019-04-01T18:58:13.732Z,9.20
2019-04-01T19:00:47.268Z,9.10
2019-04-01T19:03:17.037Z,9.00
2019-04-01T19:05:47.084Z,9.00
2019-04-01T19:08:15.495Z,8.90
2019-04-01T19:10:44.803Z,8.80
2019-04-01T19:13:13.874Z,8.80
2019-04-01T19:15:43.811Z,8.70
2019-04-01T19:18:13.405Z,8.70
2019-04-01T19:20:55.593Z,8.60
2019-04-01T19:23:13.792Z,8.60
2019-04-01T19:25:43.249Z,8.50
2019-04-01T19:28:12.665Z,8.40
2019-04-01T19:30:43.076Z,8.40
2019-04-01T19:33:12.675Z,8.30
2019-04-01T19:35:42.088Z,8.30
2019-04-01T19:38:11.520Z,8.30
2019-04-01T19:40:40.962Z,8.20
2019-04-01T19:43:10.263Z,8.20
2019-04-01T19:45:40.206Z,8.20
2019-04-01T19:48:09.852Z,8.10
2019-04-01T19:50:39.240Z,8.00
2019-04-01T19:53:08.619Z,8.00
2019-04-01T19:55:38.263Z,8.00
2019-04-01T19:58:07.600Z,7.90
2019-04-01T20:00:37.226Z,7.90
2019-04-01T20:03:06.511Z,7.90
2019-04-01T20:05:35.799Z,7.80
2019-04-01T20:08:05.213Z,7.80
2019-04-01T20:10:34.360Z,7.80
2019-04-01T20:13:03.527Z,7.80
2019-04-01T20:15:32.843Z,7.70
2019-04-01T20:18:02.072Z,7.70
2019-04-01T20:20:31.640Z,7.70
2019-04-01T20:23:01.472Z,7.60
2019-04-01T20:25:30.988Z,7.60
2019-04-01T20:28:00.439Z,7.60
2019-04-01T20:30:29.876Z,7.50
2019-04-01T20:32:59.538Z,7.50
2019-04-01T20:35:29.073Z,7.50
2019-04-01T20:37:58.646Z,7.40
2019-04-01T20:40:28.160Z,7.40
2019-04-01T20:42:57.233Z,7.30
2019-04-01T20:45:26.575Z,7.30
2019-04-01T20:47:56.235Z,7.30
2019-04-01T20:50:25.730Z,7.20
2019-04-01T20:52:54.928Z,7.20
2019-04-01T20:55:24.810Z,7.20
2019-04-01T20:57:54.500Z,7.10
2019-04-01T21:00:23.859Z,7.10
2019-04-01T21:02:53.431Z,7.10
2019-04-01T21:05:23.145Z,7.10
2019-04-01T21:07:53.395Z,7.00
2019-04-01T21:10:22.647Z,7.00
2019-04-01T21:12:51.867Z,6.90
2019-04-01T21:15:21.506Z,6.90
2019-04-01T21:17:51.912Z,6.90
2019-04-01T21:20:21.385Z,6.80
2019-04-01T21:22:50.871Z,6.80
2019-04-01T21:25:20.305Z,6.80
2019-04-01T21:27:49.393Z,6.70
2019-04-01T21:30:19.125Z,6.70
2019-04-01T21:32:49.348Z,6.70
2019-04-01T21:35:18.573Z,6.60
2019-04-01T21:37:48.839Z,6.60
2019-04-01T21:40:19.612Z,6.50
2019-04-01T21:42:48.346Z,6.50
2019-04-01T21:45:18.220Z,6.50
2019-04-01T21:47:47.749Z,6.50
2019-04-01T21:50:17.040Z,6.40
2019-04-01T21:52:46.344Z,6.40
2019-04-01T21:55:15.780Z,6.40
2019-04-01T21:57:45.223Z,6.30
2019-04-01T22:00:19.868Z,6.30
2019-04-01T22:02:49.280Z,6.30
2019-04-01T22:05:18.787Z,6.30
2019-04-01T22:07:48.100Z,6.30
2019-04-01T22:10:17.714Z,6.20
2019-04-01T22:12:47.047Z,6.20
2019-04-01T22:15:18.743Z,6.20
2019-04-01T22:17:47.716Z,6.10
2019-04-01T22:20:17.631Z,6.10
2019-04-01T22:22:47.015Z,6.10
2019-04-01T22:25:16.392Z,6.00
2019-04-01T22:27:48.233Z,6.00
2019-04-01T22:30:17.719Z,6.00
2019-04-01T22:32:47.129Z,5.90
2019-04-01T22:35:16.498Z,5.90
2019-04-01T22:37:45.932Z,5.90
2019-04-01T22:40:15.292Z,5.90
2019-04-01T22:42:44.745Z,5.80
2019-04-01T22:45:14.307Z,5.80
2019-04-01T22:47:45.283Z,5.80
2019-04-01T22:50:14.806Z,5.80
2019-04-01T22:52:44.066Z,5.70
2019-04-01T22:55:13.474Z,5.70
2019-04-01T22:57:42.865Z,5.70
2019-04-01T23:00:12.460Z,5.70
2019-04-01T23:02:42.466Z,5.70
2019-04-01T23:05:12.292Z,5.60
2019-04-01T23:07:41.660Z,5.60
2019-04-01T23:10:11.624Z,5.60
2019-04-01T23:12:40.809Z,5.50
2019-04-01T23:15:10.127Z,5.50
2019-04-01T23:17:39.483Z,5.50
2019-04-01T23:20:08.723Z,5.50
2019-04-01T23:22:37.958Z,5.40
2019-04-01T23:25:07.639Z,5.40
2019-04-01T23:27:36.740Z,5.40
2019-04-01T23:30:09.903Z,5.30
2019-04-01T23:32:41.701Z,5.30
2019-04-01T23:35:12.285Z,5.30
2019-04-01T23:37:41.833Z,5.30
2019-04-01T23:40:12.158Z,5.20
2019-04-01T23:42:41.712Z,5.20
2019-04-01T23:45:11.438Z,5.20
2019-04-01T23:47:40.655Z,5.20
2019-04-01T23:50:10.279Z,5.20
2019-04-01T23:52:39.751Z,5.10
2019-04-01T23:55:09.953Z,5.10
2019-04-01T23:57:39.338Z,5.10
